Time;durP1;ratioP1;P1;durP2;ratioP2;P2;SDS_P1;SDS_P2;PMS_P1;PMS_P2;Temp;Humidity;BMP_temperature;BMP_pressure;BME280_temperature;BME280_humidity;BME280_pressure;Samples;Min_cycle;Max_cycle;Signal;HPM_P1;HPM_P2
2023/01/23 00:01:35;;;;;;;;;;;;;;;4.61;80.63;101422.19;5391462;32;34700;-79
2023/01/23 00:04:37;;;;;;;;;;;;;;;5.47;77.04;101417.84;5420410;32;34489;-79
2023/01/23 00:07:39;;;;;;;;;;;;;;;5.12;77.41;101412.69;5402128;32;33463;-78
2023/01/23 00:10:41;;;;;;;;;;;;;;;5.00;77.97;101405.72;5417719;32;33811;-79
2023/01/23 00:13:43;;;;;;;;;;;;;;;5.35;78.37;101408.31;5378525;32;34751;-78
2023/01/23 00:16:45;;;;;;;;;;;;;;;4.72;79.24;101404.00;5404657;32;34981;-75
2023/01/23 00:19:47;;;;;;;;;;;;;;;5.22;77.77;101396.19;5409827;32;46126;-79
2023/01/23 00:22:48;;;;;;;;;;;;;;;4.98;78.38;101389.25;5400232;32;33913;-75
2023/01/23 00:25:50;;;;;;;;;;;;;;;4.95;78.75;101388.34;5417821;32;34064;-78
2023/01/23 00:28:53;;;;;;;;;;;;;;;5.23;78.48;101392.69;5406260;32;33850;-75
2023/01/23 00:31:55;;;;;;;;;;;;;;;5.06;78.28;101394.44;5400182;32;33969;-79
2023/01/23 00:34:57;;;;;;;;;;;;;;;4.85;79.33;101390.09;5381036;32;35492;-75
2023/01/23 00:37:59;;;;;;;;;;;;;;;4.89;77.63;101391.81;5413876;32;34499;-75
2023/01/23 00:41:01;;;;;;;;;;;;;;;5.08;76.59;101408.31;5398369;32;33991;-78
2023/01/23 00:44:03;;;;;;;;;;;;;;;5.27;76.08;101403.97;5401813;32;34632;-75
2023/01/23 00:47:05;;;;;;;;;;;;;;;5.82;73.15;101393.44;5400160;32;34414;-75
2023/01/23 00:50:07;;;;;;;;;;;;;;;4.76;76.72;101406.56;5401520;32;34245;-78
2023/01/23 00:53:09;;;;;;;;;;;;;;;4.58;78.80;101401.38;5387046;32;34273;-76
2023/01/23 00:56:11;;;;;;;;;;;;;;;5.83;75.13;101401.25;5400023;32;33579;-75
2023/01/23 00:59:13;;;;;;;;;;;;;;;5.51;75.29;101406.53;5409781;32;34918;-75
2023/01/23 01:02:15;;;;;;;;;;;;;;;5.04;77.18;101404.88;5401902;32;34051;-75
2023/01/23 01:05:17;;;;;;;;;;;;;;;5.78;74.41;101404.72;5395730;32;45362;-75
2023/01/23 01:08:19;;;;;;;;;;;;;;;5.18;76.23;101404.88;5418183;32;34389;-75
2023/01/23 01:11:21;;;;;;;;;;;;;;;4.64;78.22;101398.78;5391364;32;33913;-78
2023/01/23 01:14:23;;;;;;;;;;;;;;;5.62;76.63;101407.41;5396716;32;34621;-80
2023/01/23 01:17:25;;;;;;;;;;;;;;;4.91;76.73;101405.75;5404972;32;33854;-79
2023/01/23 01:20:27;;;;;;;;;;;;;;;5.04;76.56;101407.47;5408302;32;34796;-78
2023/01/23 01:23:29;;;;;;;;;;;;;;;5.34;76.91;101401.34;5390432;32;34593;-78
2023/01/23 01:26:31;;;;;;;;;;;;;;;5.05;76.82;101392.72;5388805;32;34291;-79
2023/01/23 01:29:33;;;;;;;;;;;;;;;5.27;75.79;101384.00;5406375;32;36227;-78
2023/01/23 01:32:36;;;;;;;;;;;;;;;4.50;78.62;101382.25;5384753;32;35414;-78
2023/01/23 01:35:39;;;;;;;;;;;;;;;4.89;78.18;101379.69;5408090;32;33938;-75
2023/01/23 01:38:40;;;;;;;;;;;;;;;4.82;78.69;101383.13;5403599;32;34270;-79
2023/01/23 01:41:42;;;;;;;;;;;;;;;4.69;79.08;101378.78;5407032;32;34457;-75
2023/01/23 01:45:10;;;;;;;;;;;;;;;5.27;76.18;101373.56;5410640;32;34124;-74
2023/01/23 01:48:12;;;;;;;;;;;;;;;4.88;77.03;101369.25;5380037;32;33764;-75
2023/01/23 01:51:16;;;;;;;;;;;;;;;5.14;76.60;101379.66;5392498;32;34084;-78
2023/01/23 01:54:35;;;;;;;;;;;;;;;5.76;73.63;101389.09;5381235;32;44444;-78
2023/01/23 01:57:38;;;;;;;;;;;;;;;5.39;73.97;101383.09;5412439;32;32129;-78
2023/01/23 02:00:40;;;;;;;;;;;;;;;5.40;72.64;101383.09;5395445;32;33953;-79
2023/01/23 02:03:42;;;;;;;;;;;;;;;5.64;74.12;101374.34;5394501;32;33494;-78
2023/01/23 02:06:44;;;;;;;;;;;;;;;5.82;72.39;101383.84;5398640;32;34687;-76
2023/01/23 02:09:46;;;;;;;;;;;;;;;5.69;73.11;101392.59;5397450;32;44639;-75
2023/01/23 02:12:49;;;;;;;;;;;;;;;5.97;72.27;101381.22;5404233;32;34173;-76
2023/01/23 02:15:51;;;;;;;;;;;;;;;6.12;70.12;101374.22;5395495;32;34690;-76
2023/01/23 02:18:53;;;;;;;;;;;;;;;5.24;74.60;101373.59;5399390;32;34187;-77
2023/01/23 02:21:57;;;;;;;;;;;;;;;5.41;74.43;101370.94;5387716;32;33655;-75
2023/01/23 02:25:02;;;;;;;;;;;;;;;5.95;71.97;101367.31;5403470;32;34139;-75
2023/01/23 02:28:04;;;;;;;;;;;;;;;6.07;71.98;101365.53;5420448;32;34078;-78
2023/01/23 02:31:06;;;;;;;;;;;;;;;5.91;72.10;101367.31;5389927;32;33149;-78
2023/01/23 02:34:09;;;;;;;;;;;;;;;6.09;71.78;101374.19;5406140;32;33901;-79
2023/01/23 02:37:11;;;;;;;;;;;;;;;5.33;73.72;101380.50;5386718;32;33305;-78
2023/01/23 02:40:13;;;;;;;;;;;;;;;5.43;74.74;101366.59;5416624;32;34136;-75
2023/01/23 02:43:16;;;;;;;;;;;;;;;5.24;75.08;101370.09;5384679;32;34561;-75
2023/01/23 02:46:19;;;;;;;;;;;;;;;4.79;77.21;101362.31;5381181;32;44508;-77
2023/01/23 02:49:21;;;;;;;;;;;;;;;5.58;74.56;101369.16;5420408;32;34501;-79
2023/01/23 02:52:23;;;;;;;;;;;;;;;5.71;72.67;101364.75;5364595;32;34051;-78
2023/01/23 02:55:28;;;;;;;;;;;;;;;5.80;72.34;101363.88;5399382;32;35096;-78
2023/01/23 03:01:53;;;;;;;;;;;;;;;5.05;75.92;101353.62;5397774;32;46770;-76
2023/01/23 03:04:55;;;;;;;;;;;;;;;5.39;74.85;101342.25;5413048;32;34806;-79
2023/01/23 03:07:57;;;;;;;;;;;;;;;5.66;73.87;101340.44;5384695;32;33379;-75
2023/01/23 03:10:59;;;;;;;;;;;;;;;5.31;74.67;101341.41;5410157;32;34642;-76
2023/01/23 03:14:01;;;;;;;;;;;;;;;5.48;74.44;101330.94;5395706;32;35317;-75
2023/01/23 03:17:03;;;;;;;;;;;;;;;5.60;73.68;101325.69;5405532;32;33812;-78
2023/01/23 03:20:06;;;;;;;;;;;;;;;5.21;74.49;101321.44;5411671;32;33841;-75
2023/01/23 03:23:08;;;;;;;;;;;;;;;5.85;72.57;101320.34;5381513;32;34125;-75
2023/01/23 03:26:10;;;;;;;;;;;;;;;5.87;71.79;101327.31;5398215;32;33695;-78
2023/01/23 03:32:37;;;;;;;;;;;;;;;6.01;70.62;101336.84;5409899;32;34498;-75
2023/01/23 03:35:39;;;;;;;;;;;;;;;5.86;71.79;101335.13;5378626;32;34659;-77
2023/01/23 03:41:23;;;;;;;;;;;;;;;6.05;70.80;101330.72;5409463;32;34207;-78
2023/01/23 03:42:06;;;;;;;;;;;;;;;5.91;71.01;101321.22;5400411;32;34077;-76
2023/01/23 03:45:08;;;;;;;;;;;;;;;5.60;72.42;101322.19;5409541;32;33756;-74
2023/01/23 03:48:10;;;;;;;;;;;;;;;5.85;72.79;101317.75;5421154;32;33914;-79
2023/01/23 03:51:12;;;;;;;;;;;;;;;5.95;72.14;101315.13;5388468;32;33713;-75
2023/01/23 03:54:14;;;;;;;;;;;;;;;5.88;71.96;101317.75;5413730;32;33996;-79
2023/01/23 03:57:16;;;;;;;;;;;;;;;6.04;71.78;101321.16;5370545;32;33852;-80
2023/01/23 04:00:18;;;;;;;;;;;;;;;6.44;69.64;101316.53;5407974;32;46664;-75
2023/01/23 04:03:20;;;;;;;;;;;;;;;6.56;69.41;101313.84;5412914;32;33587;-79
2023/01/23 04:06:22;;;;;;;;;;;;;;;5.72;72.54;101319.53;5386598;32;34341;-78
2023/01/23 04:09:26;;;;;;;;;;;;;;;5.73;72.72;101321.28;5420767;32;34196;-79
2023/01/23 04:12:28;;;;;;;;;;;;;;;6.11;71.86;101315.88;5386501;32;33763;-79
2023/01/23 04:15:31;;;;;;;;;;;;;;;6.43;70.46;101314.81;5403695;32;32075;-74
2023/01/23 04:18:33;;;;;;;;;;;;;;;6.38;70.13;101314.87;5388481;32;34496;-78
2023/01/23 04:21:35;;;;;;;;;;;;;;;6.12;70.82;101320.25;5394748;32;34502;-74
2023/01/23 04:24:37;;;;;;;;;;;;;;;5.80;71.64;101311.72;5414812;32;34423;-79
2023/01/23 04:27:39;;;;;;;;;;;;;;;6.80;69.59;101323.22;5385347;32;34440;-75
2023/01/23 04:30:41;;;;;;;;;;;;;;;7.44;66.79;101325.19;5409798;32;34065;-78
2023/01/23 04:33:43;;;;;;;;;;;;;;;7.35;66.56;101322.69;5386939;32;35344;-78
2023/01/23 04:36:45;;;;;;;;;;;;;;;6.91;68.07;101328.37;5391504;32;34520;-79
2023/01/23 04:39:46;;;;;;;;;;;;;;;7.36;66.19;101321.81;5402198;32;47997;-74
2023/01/23 04:42:48;;;;;;;;;;;;;;;7.04;66.40;101317.78;5386810;32;33725;-78
2023/01/23 04:45:51;;;;;;;;;;;;;;;6.88;68.55;101323.16;5397961;32;33808;-75
2023/01/23 04:48:53;;;;;;;;;;;;;;;7.58;65.73;101320.66;5398168;32;34212;-78
2023/01/23 04:51:55;;;;;;;;;;;;;;;7.37;66.48;101331.38;5392282;32;33708;-79
2023/01/23 04:54:57;;;;;;;;;;;;;;;7.79;64.86;101316.94;5380722;32;34847;-77
2023/01/23 04:57:59;;;;;;;;;;;;;;;7.15;66.05;101333.38;5383102;32;34070;-78
2023/01/23 05:01:05;;;;;;;;;;;;;;;7.00;66.93;101336.13;5404716;32;34195;-75
2023/01/23 05:04:07;;;;;;;;;;;;;;;6.96;67.43;101332.69;5395254;32;34904;-79
2023/01/23 05:07:11;;;;;;;;;;;;;;;7.44;66.14;101332.19;5403652;32;34398;-75
2023/01/23 05:10:13;;;;;;;;;;;;;;;7.11;66.61;101346.47;5380677;32;34479;-77
2023/01/23 05:13:15;;;;;;;;;;;;;;;7.59;65.25;101345.94;5406685;32;33306;-75
2023/01/23 05:16:17;;;;;;;;;;;;;;;7.66;64.78;101336.28;5393046;32;44814;-73
2023/01/23 05:19:19;;;;;;;;;;;;;;;8.06;63.50;101344.50;5392298;32;34797;-79
2023/01/23 05:22:21;;;;;;;;;;;;;;;8.25;62.90;101344.25;5404102;32;34064;-76
2023/01/23 05:25:24;;;;;;;;;;;;;;;7.94;62.55;101351.66;5383557;32;32821;-78
2023/01/23 05:28:26;;;;;;;;;;;;;;;7.62;64.93;101357.28;5410674;32;33738;-78
2023/01/23 05:31:28;;;;;;;;;;;;;;;7.52;63.85;101357.38;5388013;32;34328;-79
2023/01/23 05:34:31;;;;;;;;;;;;;;;7.07;66.26;101356.09;5399134;32;33576;-76
2023/01/23 05:37:33;;;;;;;;;;;;;;;6.78;67.99;101357.22;5394053;32;34703;-75
2023/01/23 05:40:35;;;;;;;;;;;;;;;7.19;66.38;101344.66;5400973;32;34391;-79
2023/01/23 05:43:37;;;;;;;;;;;;;;;7.51;65.60;101353.03;5406579;32;34166;-79
2023/01/23 05:46:39;;;;;;;;;;;;;;;7.65;64.78;101336.28;5394869;32;33431;-77
2023/01/23 05:49:41;;;;;;;;;;;;;;;6.84;67.37;101345.00;5397623;32;33971;-75
2023/01/23 05:52:43;;;;;;;;;;;;;;;6.61;68.33;101347.78;5374593;32;34460;-79
2023/01/23 05:55:45;;;;;;;;;;;;;;;6.35;69.83;101359.25;5404743;32;35192;-75
2023/01/23 05:58:47;;;;;;;;;;;;;;;6.96;66.87;101368.41;5384243;32;45171;-74
2023/01/23 06:01:49;;;;;;;;;;;;;;;6.38;69.47;101368.84;5389693;32;36210;-78
2023/01/23 06:04:53;;;;;;;;;;;;;;;6.45;68.75;101374.00;5416183;32;34199;-74
2023/01/23 06:07:56;;;;;;;;;;;;;;;6.71;68.58;101375.56;5395566;32;33612;-79
2023/01/23 06:10:58;;;;;;;;;;;;;;;7.14;67.18;101381.28;5393239;32;33237;-78
2023/01/23 06:14:00;;;;;;;;;;;;;;;7.01;68.17;101388.38;5399365;32;34290;-78
2023/01/23 06:17:03;;;;;;;;;;;;;;;7.76;65.32;101386.75;5390664;32;34593;-75
2023/01/23 06:20:05;;;;;;;;;;;;;;;7.62;65.24;101392.16;5390836;32;33631;-74
2023/01/23 06:23:07;;;;;;;;;;;;;;;7.36;66.41;101399.41;5389202;32;33676;-75
2023/01/23 06:26:09;;;;;;;;;;;;;;;7.68;64.87;101404.31;5411140;32;34610;-77
2023/01/23 06:29:13;;;;;;;;;;;;;;;7.57;65.69;101401.78;5392414;32;33210;-72
2023/01/23 06:32:15;;;;;;;;;;;;;;;6.93;67.46;101413.72;5409336;32;33815;-78
2023/01/23 06:35:18;;;;;;;;;;;;;;;7.27;66.39;101422.12;5405444;32;44965;-71
2023/01/23 06:38:20;;;;;;;;;;;;;;;7.95;65.31;101411.84;5416185;32;33970;-70
2023/01/23 06:41:23;;;;;;;;;;;;;;;8.07;64.02;101423.91;5400908;32;34493;-74
2023/01/23 06:44:25;;;;;;;;;;;;;;;7.73;64.73;101424.31;5401302;32;34807;-74
2023/01/23 06:47:27;;;;;;;;;;;;;;;7.98;64.83;101430.09;5407667;32;33244;-77
2023/01/23 06:50:30;;;;;;;;;;;;;;;7.02;67.03;101429.34;5390120;32;33459;-80
2023/01/23 06:53:32;;;;;;;;;;;;;;;8.08;64.30;101423.87;5405383;32;33911;-81
2023/01/23 06:56:34;;;;;;;;;;;;;;;8.43;62.28;101416.47;5385277;32;33170;-72
2023/01/23 06:59:36;;;;;;;;;;;;;;;8.23;63.52;101427.19;5413422;32;34462;-71
2023/01/23 07:02:38;;;;;;;;;;;;;;;8.13;64.39;101429.06;5379961;32;33059;-71
2023/01/23 07:05:42;;;;;;;;;;;;;;;7.60;65.37;101427.94;5407782;32;35101;-82
2023/01/23 07:08:44;;;;;;;;;;;;;;;8.12;63.88;101429.97;5415688;32;34642;-83
2023/01/23 07:11:46;;;;;;;;;;;;;;;8.29;64.26;101432.34;5404914;32;34528;-76
2023/01/23 07:14:48;;;;;;;;;;;;;;;7.99;64.13;101441.47;5406223;32;33353;-76
2023/01/23 07:17:50;;;;;;;;;;;;;;;8.91;61.70;101439.34;5406167;32;34383;-74
2023/01/23 07:20:52;;;;;;;;;;;;;;;8.03;63.99;101444.00;5415943;32;34332;-76
2023/01/23 07:23:54;;;;;;;;;;;;;;;8.81;62.14;101452.62;5401198;32;34440;-83
2023/01/23 07:26:57;;;;;;;;;;;;;;;8.37;63.58;101460.22;5395064;32;33184;-83
2023/01/23 07:29:59;;;;;;;;;;;;;;;8.44;63.47;101463.63;5414865;32;31894;-86
2023/01/23 07:33:03;;;;;;;;;;;;;;;8.29;63.67;101464.66;5407904;32;33181;-82
2023/01/23 07:36:06;;;;;;;;;;;;;;;8.81;61.69;101457.88;5414735;32;34575;-76
2023/01/23 07:39:08;;;;;;;;;;;;;;;8.45;63.11;101465.38;5409294;32;34515;-76
2023/01/23 07:42:10;;;;;;;;;;;;;;;8.06;63.54;101471.94;5403253;32;33839;-81
2023/01/23 07:45:13;;;;;;;;;;;;;;;7.83;64.32;101469.56;5389684;32;34625;-77
2023/01/23 07:48:15;;;;;;;;;;;;;;;8.87;62.26;101463.00;5387223;32;34529;-74
2023/01/23 07:51:17;;;;;;;;;;;;;;;8.08;64.94;101465.78;5380044;32;45110;-71
2023/01/23 07:54:19;;;;;;;;;;;;;;;8.26;64.18;101469.06;5389794;32;33298;-70
2023/01/23 07:57:21;;;;;;;;;;;;;;;8.85;62.64;101462.19;5419202;32;34488;-70
2023/01/23 08:00:23;;;;;;;;;;;;;;;8.44;63.32;101468.88;5408986;32;33305;-82
2023/01/23 08:03:28;;;;;;;;;;;;;;;7.85;64.80;101470.41;5396376;32;34848;-85
2023/01/23 08:06:32;;;;;;;;;;;;;;;7.73;65.23;101478.38;5390537;32;31832;-73
2023/01/23 08:09:34;;;;;;;;;;;;;;;8.35;64.09;101477.69;5409202;32;33043;-74
2023/01/23 08:12:36;;;;;;;;;;;;;;;7.93;64.64;101473.81;5404415;32;33616;-77
2023/01/23 08:15:39;;;;;;;;;;;;;;;8.75;63.20;101465.81;5405716;32;35140;-77
2023/01/23 08:18:41;;;;;;;;;;;;;;;8.34;64.05;101472.47;5419166;32;33296;-71
2023/01/23 08:21:44;;;;;;;;;;;;;;;8.58;62.84;101471.31;5394927;32;34534;-75
2023/01/23 08:24:47;;;;;;;;;;;;;;;8.50;62.73;101471.41;5413476;32;34999;-69
2023/01/23 08:27:49;;;;;;;;;;;;;;;8.70;62.92;101459.81;5396633;32;44674;-71
2023/01/23 08:30:51;;;;;;;;;;;;;;;8.23;64.53;101476.94;5402204;32;33383;-71
2023/01/23 08:33:54;;;;;;;;;;;;;;;8.42;64.71;101473.25;5414266;32;33482;-69
2023/01/23 08:36:57;;;;;;;;;;;;;;;8.82;62.99;101476.22;5406147;32;33899;-75
2023/01/23 08:39:59;;;;;;;;;;;;;;;9.22;62.00;101475.59;5407394;32;32379;-74
2023/01/23 08:43:01;;;;;;;;;;;;;;;9.22;62.00;101476.47;5406126;32;33587;-78
2023/01/23 08:46:03;;;;;;;;;;;;;;;8.70;63.65;101484.25;5409700;32;33294;-77
2023/01/23 08:49:05;;;;;;;;;;;;;;;9.60;60.37;101477.56;5398741;32;35225;-74
2023/01/23 08:52:07;;;;;;;;;;;;;;;9.45;60.71;101477.81;5380727;32;33205;-69
2023/01/23 08:55:11;;;;;;;;;;;;;;;9.35;61.06;101481.50;5398956;32;33161;-77
2023/01/23 08:58:13;;;;;;;;;;;;;;;9.62;60.99;101474.91;5403160;32;36042;-71
2023/01/23 09:01:16;;;;;;;;;;;;;;;8.65;63.79;101481.69;5405111;32;33213;-77
2023/01/23 09:04:18;;;;;;;;;;;;;;;9.31;61.65;101467.56;5403862;32;44461;-73
2023/01/23 09:07:20;;;;;;;;;;;;;;;9.77;60.73;101474.63;5411611;32;34669;-75
2023/01/23 09:10:23;;;;;;;;;;;;;;;10.15;58.97;101476.53;5413748;32;34746;-88
2023/01/23 09:16:23;;;;;;;;;;;;;;;10.32;58.63;101478.00;5430963;31;851519;-79
2023/01/23 09:19:25;;;;;;;;;;;;;;;9.77;60.02;101485.13;5414708;32;35297;-91
2023/01/23 09:22:27;;;;;;;;;;;;;;;10.23;59.38;101490.38;5411991;32;34838;-79
2023/01/23 09:25:30;;;;;;;;;;;;;;;10.18;59.58;101480.87;5418734;32;35555;-76
2023/01/23 09:28:32;;;;;;;;;;;;;;;11.14;57.12;101470.84;5419913;32;34723;-77
2023/01/23 09:31:34;;;;;;;;;;;;;;;11.18;56.89;101469.88;5417627;32;35241;-72
2023/01/23 09:34:36;;;;;;;;;;;;;;;10.85;58.15;101471.53;5392212;32;35073;-77
2023/01/23 09:41:00;;;;;;;;;;;;;;;11.10;57.25;101469.22;5421565;32;32937;-80
2023/01/23 09:44:08;;;;;;;;;;;;;;;11.24;56.33;101466.25;5414363;32;34072;-76
2023/01/23 09:47:24;;;;;;;;;;;;;;;11.06;56.64;101465.78;5427542;32;34246;-87
2023/01/23 09:50:27;;;;;;;;;;;;;;;10.90;58.04;101472.31;5389138;32;37448;-87
2023/01/23 09:53:34;;;;;;;;;;;;;;;10.97;57.24;101468.63;5418495;32;36391;-85
2023/01/23 09:56:40;;;;;;;;;;;;;;;10.86;57.42;101473.28;5407340;32;35037;-74
2023/01/23 09:59:44;;;;;;;;;;;;;;;11.24;56.97;101461.84;5390657;32;34336;-78
2023/01/23 10:03:01;;;;;;;;;;;;;;;10.34;58.69;101469.16;5391153;32;34207;-76
2023/01/23 10:06:07;;;;;;;;;;;;;;;10.61;59.11;101467.69;5377713;32;35165;-75
2023/01/23 10:09:22;;;;;;;;;;;;;;;10.82;57.94;101475.13;5405635;32;35622;-85
2023/01/23 10:12:42;;;;;;;;;;;;;;;11.13;56.57;101458.59;5400800;32;44735;-75
2023/01/23 10:15:53;;;;;;;;;;;;;;;10.15;60.30;101468.63;5424597;32;36020;-86
2023/01/23 10:19:15;;;;;;;;;;;;;;;11.51;57.64;101460.28;5394095;32;44437;-88
2023/01/23 10:22:22;;;;;;;;;;;;;;;11.41;57.23;101465.84;5411725;32;44912;-80
2023/01/23 10:25:25;;;;;;;;;;;;;;;10.87;58.87;101463.63;5423188;32;34045;-90
2023/01/23 10:28:28;;;;;;;;;;;;;;;11.46;56.82;101459.53;5401400;32;34592;-89
2023/01/23 10:31:38;;;;;;;;;;;;;;;11.75;56.97;101458.78;5416467;32;36123;-91
2023/01/23 10:34:46;;;;;;;;;;;;;;;13.35;52.79;101453.09;5397359;32;35497;-68
2023/01/23 10:37:54;;;;;;;;;;;;;;;15.44;46.29;101454.88;5400183;32;44465;-72
2023/01/23 10:41:18;;;;;;;;;;;;;;;17.57;41.15;101448.44;5388530;32;35233;-79
2023/01/23 10:44:23;;;;;;;;;;;;;;;17.26;40.54;101444.72;5403624;32;44319;-80
2023/01/23 10:47:36;;;;;;;;;;;;;;;18.43;39.64;101434.16;5405342;32;36186;-78
2023/01/23 10:50:41;;;;;;;;;;;;;;;18.13;39.56;101437.53;5383145;32;35512;-75
2023/01/23 10:53:43;;;;;;;;;;;;;;;17.81;39.55;101427.75;5365199;32;37741;-75
2023/01/23 10:56:46;;;;;;;;;;;;;;;18.10;39.40;101431.53;5396897;32;35777;-74
2023/01/23 11:00:03;;;;;;;;;;;;;;;19.06;37.32;101418.12;5393314;32;44782;-83
2023/01/23 11:03:20;;;;;;;;;;;;;;;17.17;40.97;101426.56;5399141;32;34021;-72
2023/01/23 11:06:24;;;;;;;;;;;;;;;15.95;43.49;101419.94;5381160;32;43030;-74
2023/01/23 11:09:29;;;;;;;;;;;;;;;14.57;47.23;101416.94;5395231;32;34305;-71
2023/01/23 11:12:33;;;;;;;;;;;;;;;13.78;49.10;101419.91;5394359;32;34278;-81
2023/01/23 11:15:39;;;;;;;;;;;;;;;13.10;50.51;101426.63;5373670;32;35992;-78
2023/01/23 11:18:43;;;;;;;;;;;;;;;12.99;50.08;101432.25;5399276;32;35378;-80
2023/01/23 11:21:54;;;;;;;;;;;;;;;13.93;48.69;101418.50;5378191;32;35781;-76
2023/01/23 11:24:56;;;;;;;;;;;;;;;13.70;48.64;101419.31;5390936;32;44514;-92
2023/01/23 11:27:59;;;;;;;;;;;;;;;13.70;49.29;101416.69;5394066;32;34274;-87
2023/01/23 11:31:05;;;;;;;;;;;;;;;13.70;49.16;101419.31;5396333;32;35699;-70
2023/01/23 11:34:16;;;;;;;;;;;;;;;14.28;47.32;101412.75;5393834;32;32629;-78
2023/01/23 11:37:27;;;;;;;;;;;;;;;15.76;43.88;101410.25;5389082;32;36286;-82
2023/01/23 11:40:29;;;;;;;;;;;;;;;13.89;48.13;101408.94;5388344;32;34229;-83
2023/01/23 11:43:31;;;;;;;;;;;;;;;15.41;45.42;101399.37;5380149;32;35631;-81
2023/01/23 11:46:43;;;;;;;;;;;;;;;14.22;47.50;101401.53;5377346;32;35945;-73
2023/01/23 11:49:45;;;;;;;;;;;;;;;14.86;46.18;101394.59;5367606;32;32501;-75
2023/01/23 11:52:48;;;;;;;;;;;;;;;13.99;47.54;101405.91;5359038;32;45178;-81
2023/01/23 11:56:05;;;;;;;;;;;;;;;14.49;47.25;101389.94;5392981;32;34183;-75
2023/01/23 11:59:17;;;;;;;;;;;;;;;13.72;48.97;101399.87;5387084;32;35808;-84
2023/01/23 12:02:25;;;;;;;;;;;;;;;13.62;49.32;101405.53;5397349;32;44723;-82
2023/01/23 12:05:42;;;;;;;;;;;;;;;13.37;49.71;101397.59;5390038;32;34247;-75
2023/01/23 12:08:53;;;;;;;;;;;;;;;13.49;48.45;101403.31;5381167;32;34102;-79
2023/01/23 12:12:01;;;;;;;;;;;;;;;13.73;48.31;101406.00;5383203;32;44490;-82
2023/01/23 12:15:12;;;;;;;;;;;;;;;14.63;46.30;101403.47;5381806;32;34152;-84
2023/01/23 12:18:18;;;;;;;;;;;;;;;14.79;45.25;101406.34;5393097;32;35172;-85
2023/01/23 12:21:40;;;;;;;;;;;;;;;13.93;47.13;101400.84;5392513;32;43104;-84
2023/01/23 12:24:51;;;;;;;;;;;;;;;15.09;44.51;101398.94;5385173;32;34625;-76
2023/01/23 12:28:03;;;;;;;;;;;;;;;16.36;41.85;101389.78;5396342;32;44420;-82
2023/01/23 12:31:08;;;;;;;;;;;;;;;14.63;45.34;101389.41;5370061;32;34225;-82
2023/01/23 12:34:46;;;;;;;;;;;;;;;14.82;44.73;101386.88;5393048;32;34396;-81
2023/01/23 12:37:50;;;;;;;;;;;;;;;14.54;45.71;101389.75;5352905;32;34662;-84
2023/01/23 12:40:56;;;;;;;;;;;;;;;13.96;47.38;101392.81;5388510;32;35641;-77
2023/01/23 12:44:00;;;;;;;;;;;;;;;14.00;47.82;101396.22;5405564;32;35568;-79
2023/01/23 12:47:06;;;;;;;;;;;;;;;13.30;49.16;101394.31;5387769;32;35619;-75
2023/01/23 12:50:27;;;;;;;;;;;;;;;13.91;47.83;101388.59;5380838;32;35435;-74
2023/01/23 12:53:31;;;;;;;;;;;;;;;15.23;45.35;101392.22;5391915;32;32926;-80
2023/01/23 12:56:34;;;;;;;;;;;;;;;14.79;45.59;101390.47;5383751;32;35577;-71
2023/01/23 12:59:40;;;;;;;;;;;;;;;15.89;43.72;101399.03;5396875;32;34085;-81
2023/01/23 13:02:42;;;;;;;;;;;;;;;18.07;38.44;101389.13;5368507;32;34240;-81
2023/01/23 13:05:50;;;;;;;;;;;;;;;15.60;42.90;101400.31;5398889;32;34900;-77
2023/01/23 13:08:55;;;;;;;;;;;;;;;16.14;42.31;101388.16;5391876;32;45076;-72
2023/01/23 13:12:17;;;;;;;;;;;;;;;15.03;44.61;101398.34;5384380;32;34359;-76
2023/01/23 13:15:24;;;;;;;;;;;;;;;16.05;43.26;101385.09;5390665;32;42976;-74
2023/01/23 13:22:22;;;;;;;;;;;;;;;17.13;40.04;101394.91;5390603;32;35446;-73
2023/01/23 13:25:32;;;;;;;;;;;;;;;19.75;35.19;101384.72;5391181;32;36131;-86
2023/01/23 13:28:38;;;;;;;;;;;;;;;17.87;37.01;101390.19;5395034;32;36480;-77
2023/01/23 13:31:49;;;;;;;;;;;;;;;17.15;38.94;101383.28;5398776;32;44506;-75
2023/01/23 13:34:51;;;;;;;;;;;;;;;17.18;39.55;101392.87;5378587;32;35552;-79
2023/01/23 13:37:53;;;;;;;;;;;;;;;17.21;39.41;101404.22;5377955;32;35448;-77
2023/01/23 13:41:07;;;;;;;;;;;;;;;16.04;41.74;101413.41;5386602;32;34174;-82
2023/01/23 13:44:20;;;;;;;;;;;;;;;14.89;44.41;101415.66;5378862;32;34127;-75
2023/01/23 13:51:25;;;;;;;;;;;;;;;16.30;41.55;101404.22;5311435;32;34609;-78
2023/01/23 13:58:18;;;;;;;;;;;;;;;15.08;43.83;101414.91;5241757;33;36830;-86
2023/01/23 14:05:15;;;;;;;;;;;;;;;16.01;42.24;101429.44;5163445;33;34845;-83
2023/01/23 14:08:31;;;;;;;;;;;;;;;15.75;42.27;101432.38;5159213;33;36063;-90
2023/01/23 14:11:45;;;;;;;;;;;;;;;14.84;45.21;101420.28;5411830;31;837726;-81
2023/01/23 14:18:43;;;;;;;;;;;;;;;14.70;45.86;101429.69;5303083;32;34855;-77
2023/01/23 14:22:03;;;;;;;;;;;;;;;14.30;46.61;101423.28;5240072;33;34864;-81
2023/01/23 14:25:11;;;;;;;;;;;;;;;13.46;48.97;101431.59;5245333;33;34480;-74
2023/01/23 14:28:15;;;;;;;;;;;;;;;13.55;48.80;101426.00;5234453;33;34274;-79
2023/01/23 14:31:21;;;;;;;;;;;;;;;13.70;48.40;101419.31;5252000;33;44355;-84
2023/01/23 14:34:24;;;;;;;;;;;;;;;13.16;49.76;101429.06;5244271;33;34112;-85
2023/01/23 14:37:26;;;;;;;;;;;;;;;13.26;50.25;101432.28;5248383;33;34043;-81
2023/01/23 14:40:28;;;;;;;;;;;;;;;13.34;50.10;101427.63;5303308;32;35265;-80
2023/01/23 14:43:47;;;;;;;;;;;;;;;13.79;48.93;101426.94;5360875;32;45173;-80
2023/01/23 14:46:53;;;;;;;;;;;;;;;14.75;46.49;101425.06;5366630;32;35299;-72
2023/01/23 14:49:55;;;;;;;;;;;;;;;14.68;46.29;101428.88;5365589;32;37529;-82
2023/01/23 14:53:04;;;;;;;;;;;;;;;13.34;49.56;101430.25;5369930;32;33942;-77
2023/01/23 14:56:07;;;;;;;;;;;;;;;13.13;50.03;101438.84;5410990;32;34445;-83
2023/01/23 14:59:19;;;;;;;;;;;;;;;12.35;52.11;101442.16;5413566;32;35693;-81
2023/01/23 15:02:21;;;;;;;;;;;;;;;13.26;50.22;101445.47;5410336;32;45455;-77
2023/01/23 15:05:25;;;;;;;;;;;;;;;12.51;52.01;101454.91;5417586;32;34299;-76
2023/01/23 15:08:31;;;;;;;;;;;;;;;12.26;53.06;101447.72;5390990;32;35062;-74
2023/01/23 15:11:33;;;;;;;;;;;;;;;12.26;52.93;101452.97;5413918;32;35989;-69
2023/01/23 15:14:38;;;;;;;;;;;;;;;12.01;53.58;101454.59;5407104;32;33982;-76
2023/01/23 15:17:42;;;;;;;;;;;;;;;12.53;52.42;101450.44;5412581;32;34963;-83
2023/01/23 15:20:51;;;;;;;;;;;;;;;11.76;54.06;101455.22;5405365;32;34898;-85
2023/01/23 15:24:02;;;;;;;;;;;;;;;12.60;52.29;101441.41;5390013;32;44894;-74
2023/01/23 15:27:17;;;;;;;;;;;;;;;12.83;51.41;101448.62;5393849;32;35622;-78
2023/01/23 15:30:31;;;;;;;;;;;;;;;13.70;49.07;101441.31;5378043;32;44829;-79
2023/01/23 15:33:36;;;;;;;;;;;;;;;13.93;48.33;101442.28;5402188;32;34267;-79
2023/01/23 15:36:38;;;;;;;;;;;;;;;14.11;47.87;101452.19;5390390;32;34693;-76
2023/01/23 15:39:48;;;;;;;;;;;;;;;13.95;48.11;101445.72;5394148;32;34161;-72
2023/01/23 15:43:07;;;;;;;;;;;;;;;13.07;50.39;101461.03;5408813;32;44656;-79
2023/01/23 15:46:10;;;;;;;;;;;;;;;13.74;49.03;101463.22;5401207;32;35377;-89
2023/01/23 15:49:12;;;;;;;;;;;;;;;14.14;48.01;101461.78;5404505;32;35722;-73
2023/01/23 15:52:28;;;;;;;;;;;;;;;14.09;48.06;101461.94;5377081;32;34128;-74
2023/01/23 15:55:30;;;;;;;;;;;;;;;14.29;47.37;101463.84;5398597;32;34236;-74
2023/01/23 15:58:32;;;;;;;;;;;;;;;13.99;47.92;101468.50;5400304;32;34429;-81
2023/01/23 16:01:34;;;;;;;;;;;;;;;13.87;48.19;101469.78;5394793;32;34118;-77
2023/01/23 16:04:36;;;;;;;;;;;;;;;13.79;48.62;101470.06;5410498;32;34342;-83
2023/01/23 16:07:39;;;;;;;;;;;;;;;13.74;48.74;101479.06;5400949;32;34626;-86
2023/01/23 16:10:41;;;;;;;;;;;;;;;13.27;49.89;101482.41;5410071;32;36127;-80
2023/01/23 16:13:43;;;;;;;;;;;;;;;13.62;49.35;101474.19;5385500;32;35251;-80
2023/01/23 16:16:46;;;;;;;;;;;;;;;13.51;49.74;101482.47;5390804;32;35879;-89
2023/01/23 16:19:49;;;;;;;;;;;;;;;13.36;50.43;101475.94;5404408;32;44965;-80
2023/01/23 16:22:52;;;;;;;;;;;;;;;13.46;50.27;101479.12;5393289;32;34130;-89
2023/01/23 16:25:54;;;;;;;;;;;;;;;13.73;49.61;101483.50;5402693;32;34072;-83
2023/01/23 16:28:56;;;;;;;;;;;;;;;13.44;50.37;101479.19;5392394;32;33154;-80